createdAt,value
2023-03-07T00:02:26.500Z,3.63
2023-03-07T00:04:53.749Z,5.00
2023-03-07T00:07:20.970Z,3.58
2023-03-07T00:09:48.437Z,3.95
2023-03-07T00:12:15.666Z,4.10
2023-03-07T00:14:43.114Z,3.78
2023-03-07T00:17:10.578Z,3.90
2023-03-07T00:19:38.001Z,5.10
2023-03-07T00:22:05.345Z,2.83
2023-03-07T00:24:32.642Z,3.00
2023-03-07T00:27:00.214Z,4.20
2023-03-07T00:29:27.709Z,3.67
2023-03-07T00:31:54.983Z,4.28
2023-03-07T00:34:22.321Z,3.72
2023-03-07T00:36:49.653Z,3.95
2023-03-07T00:39:17.090Z,3.45
2023-03-07T00:41:44.443Z,2.85
2023-03-07T00:44:11.729Z,4.45
2023-03-07T00:46:39.257Z,3.38
2023-03-07T00:49:06.951Z,4.00
2023-03-07T00:51:34.166Z,4.38
2023-03-07T00:54:01.582Z,4.38
2023-03-07T00:56:28.840Z,3.30
2023-03-07T00:58:56.070Z,3.63
2023-03-07T01:01:24.487Z,2.80
2023-03-07T01:03:54.818Z,3.88
2023-03-07T01:06:24.081Z,3.63
2023-03-07T01:08:52.456Z,2.88
2023-03-07T01:11:19.760Z,3.03
2023-03-07T01:13:47.231Z,2.35
2023-03-07T01:16:16.515Z,2.80
2023-03-07T01:18:44.379Z,2.55
2023-03-07T01:21:16.441Z,2.67
2023-03-07T01:23:43.706Z,2.72
2023-03-07T01:26:15.646Z,2.92
2023-03-07T01:28:42.955Z,2.53
2023-03-07T01:31:10.909Z,8.27
2023-03-07T01:33:40.616Z,3.05
2023-03-07T01:36:16.542Z,2.50
2023-03-07T01:38:43.810Z,2.50
2023-03-07T01:41:11.955Z,3.13
2023-03-07T01:43:40.168Z,2.45
2023-03-07T01:46:17.837Z,2.25
2023-03-07T01:48:48.768Z,2.13
2023-03-07T01:51:16.188Z,1.92
2023-03-07T01:53:43.630Z,2.25
2023-03-07T01:56:11.964Z,2.33
2023-03-07T01:58:40.003Z,2.70
2023-03-07T02:01:09.839Z,2.40
2023-03-07T02:04:03.534Z,2.15
2023-03-07T02:06:32.296Z,2.53
2023-03-07T02:09:06.296Z,2.72
2023-03-07T02:11:33.698Z,2.30
2023-03-07T02:14:01.106Z,2.60
2023-03-07T02:16:28.426Z,2.50
2023-03-07T02:18:55.620Z,1.70
2023-03-07T02:21:35.123Z,3.10
2023-03-07T02:24:05.681Z,2.33
2023-03-07T02:26:33.075Z,2.60
2023-03-07T02:29:01.486Z,2.10
2023-03-07T02:31:29.934Z,2.88
2023-03-07T02:33:57.219Z,2.47
2023-03-07T02:36:26.740Z,2.35
2023-03-07T02:39:06.838Z,2.88
2023-03-07T02:41:35.275Z,2.47
2023-03-07T02:44:08.273Z,2.33
2023-03-07T02:46:35.559Z,2.88
2023-03-07T02:49:02.745Z,3.10
2023-03-07T02:51:31.233Z,2.63
2023-03-07T02:53:58.479Z,2.78
2023-03-07T02:56:25.725Z,2.47
2023-03-07T02:58:52.872Z,2.55
2023-03-07T03:01:20.212Z,2.50
2023-03-07T03:03:48.407Z,2.88
2023-03-07T03:06:40.448Z,2.03
2023-03-07T03:09:07.828Z,2.50
2023-03-07T03:11:35.077Z,2.85
2023-03-07T03:14:14.684Z,2.67
2023-03-07T03:16:42.465Z,2.28
2023-03-07T03:19:09.648Z,2.80
2023-03-07T03:21:37.011Z,2.03
2023-03-07T03:24:08.017Z,2.88
2023-03-07T03:26:36.610Z,2.40
2023-03-07T03:29:05.490Z,2.65
2023-03-07T03:31:33.155Z,2.53
2023-03-07T03:34:02.296Z,2.33
2023-03-07T03:36:30.499Z,3.40
2023-03-07T03:39:02.437Z,2.72
2023-03-07T03:41:30.162Z,2.67
2023-03-07T03:43:57.881Z,1.67
2023-03-07T03:46:27.121Z,2.53
2023-03-07T03:48:55.174Z,2.70
2023-03-07T03:51:25.580Z,2.10
2023-03-07T03:53:54.654Z,2.28
2023-03-07T03:56:22.806Z,2.40
2023-03-07T03:58:54.336Z,2.47
2023-03-07T04:01:23.230Z,2.13
2023-03-07T04:03:51.636Z,2.40
2023-03-07T04:06:26.424Z,2.50
2023-03-07T04:08:54.025Z,2.35
2023-03-07T04:11:22.063Z,2.53
2023-03-07T04:13:49.357Z,2.55
2023-03-07T04:16:17.618Z,2.33
2023-03-07T04:18:44.901Z,2.35
2023-03-07T04:21:12.919Z,2.50
2023-03-07T04:23:41.014Z,2.58
2023-03-07T04:26:09.307Z,2.33
2023-03-07T04:28:49.256Z,1.67
2023-03-07T04:31:28.152Z,2.53
2023-03-07T04:33:57.514Z,2.42
2023-03-07T04:36:25.425Z,2.67
2023-03-07T04:38:53.042Z,2.08
2023-03-07T04:41:23.458Z,1.48
2023-03-07T04:43:55.272Z,2.65
2023-03-07T04:46:24.254Z,2.00
2023-03-07T04:48:51.769Z,1.83
2023-03-07T04:51:19.584Z,2.00
2023-03-07T04:53:48.572Z,1.92
2023-03-07T04:56:16.446Z,1.52
2023-03-07T04:58:44.875Z,2.08
2023-03-07T05:01:12.795Z,1.50
2023-03-07T05:03:40.092Z,1.50
2023-03-07T05:06:11.135Z,1.55
2023-03-07T05:08:38.462Z,1.40
2023-03-07T05:11:06.569Z,1.33
2023-03-07T05:13:34.009Z,1.02
2023-03-07T05:16:01.629Z,1.60
2023-03-07T05:18:30.170Z,1.48
2023-03-07T05:20:59.042Z,1.30
2023-03-07T05:23:26.938Z,1.20
2023-03-07T05:25:55.309Z,1.33
2023-03-07T05:28:22.880Z,1.13
2023-03-07T05:30:50.166Z,1.27
2023-03-07T05:33:17.641Z,0.85
2023-03-07T05:35:55.626Z,1.10
2023-03-07T05:38:23.982Z,1.17
2023-03-07T05:40:51.233Z,1.13
2023-03-07T05:43:18.560Z,0.95
2023-03-07T05:45:45.815Z,1.13
2023-03-07T05:48:13.205Z,1.25
2023-03-07T05:50:42.087Z,1.08
2023-03-07T05:53:09.567Z,1.10
2023-03-07T05:55:36.824Z,1.23
2023-03-07T05:58:04.363Z,1.13
2023-03-07T06:00:31.976Z,1.55
2023-03-07T06:03:04.728Z,1.20
2023-03-07T06:05:33.036Z,1.63
2023-03-07T06:08:00.381Z,0.93
2023-03-07T06:10:27.957Z,1.17
2023-03-07T06:12:55.621Z,1.00
2023-03-07T06:15:24.711Z,1.65
2023-03-07T06:17:58.803Z,1.25
2023-03-07T06:20:26.130Z,1.48
2023-03-07T06:22:55.472Z,1.50
2023-03-07T06:25:22.988Z,1.40
2023-03-07T06:27:50.458Z,1.50
2023-03-07T06:30:17.949Z,1.60
2023-03-07T06:32:45.548Z,1.40
2023-03-07T06:35:12.963Z,1.20
2023-03-07T06:37:40.421Z,1.58
2023-03-07T06:40:09.515Z,1.27
2023-03-07T06:42:37.716Z,1.50
2023-03-07T06:45:08.521Z,1.35
2023-03-07T06:48:00.401Z,1.33
2023-03-07T06:50:35.174Z,1.50
2023-03-07T06:53:03.923Z,1.30
2023-03-07T06:55:31.238Z,1.63
2023-03-07T06:57:58.586Z,2.10
2023-03-07T07:00:26.177Z,2.15
2023-03-07T07:02:53.600Z,1.95
2023-03-07T07:05:20.895Z,2.20
2023-03-07T07:07:48.297Z,2.67
2023-03-07T07:10:15.570Z,2.53
2023-03-07T07:12:42.865Z,1.95
2023-03-07T07:15:10.700Z,2.22
2023-03-07T07:17:40.826Z,2.28
2023-03-07T07:20:11.247Z,2.83
2023-03-07T07:22:40.323Z,2.58
2023-03-07T07:25:07.673Z,2.42
2023-03-07T07:27:36.625Z,2.33
2023-03-07T07:30:08.720Z,2.33
2023-03-07T07:32:43.245Z,2.22
2023-03-07T07:35:10.827Z,2.13
2023-03-07T07:37:38.245Z,2.30
2023-03-07T07:40:05.661Z,2.30
2023-03-07T07:42:32.914Z,2.38
2023-03-07T07:45:11.364Z,1.98
2023-03-07T07:47:38.911Z,1.83
2023-03-07T07:50:06.487Z,2.63
2023-03-07T07:52:35.253Z,1.98
2023-03-07T07:55:02.443Z,2.28
2023-03-07T07:57:29.697Z,2.45
2023-03-07T07:59:58.660Z,2.20
2023-03-07T08:02:25.905Z,1.70
2023-03-07T08:04:53.157Z,2.67
2023-03-07T08:07:20.336Z,2.47
2023-03-07T08:09:47.461Z,2.60
2023-03-07T08:12:14.762Z,2.22
2023-03-07T08:14:44.015Z,2.83
2023-03-07T08:17:11.269Z,2.78
2023-03-07T08:19:38.569Z,2.38
2023-03-07T08:22:05.808Z,3.42
2023-03-07T08:24:40.678Z,2.70
2023-03-07T08:27:08.413Z,2.05
2023-03-07T08:29:35.769Z,2.35
2023-03-07T08:32:02.973Z,2.22
2023-03-07T08:34:32.821Z,2.70
2023-03-07T08:37:00.378Z,2.45
2023-03-07T08:39:27.542Z,2.35
2023-03-07T08:41:56.966Z,2.30
2023-03-07T08:44:24.172Z,2.38
2023-03-07T08:46:51.358Z,3.20
2023-03-07T08:49:18.486Z,2.33
2023-03-07T08:51:47.945Z,3.13
2023-03-07T08:54:15.195Z,3.33
2023-03-07T08:56:42.511Z,2.35
2023-03-07T08:59:10.834Z,2.55
2023-03-07T09:01:39.626Z,2.90
2023-03-07T09:04:08.207Z,3.25
2023-03-07T09:06:35.396Z,2.60
2023-03-07T09:09:02.581Z,2.22
2023-03-07T09:11:30.007Z,2.22
2023-03-07T09:13:57.227Z,3.10
2023-03-07T09:16:24.536Z,2.38
2023-03-07T09:18:51.839Z,2.88
2023-03-07T09:21:19.164Z,2.30
2023-03-07T09:23:46.509Z,2.95
2023-03-07T09:26:13.680Z,2.08
2023-03-07T09:28:41.384Z,2.13
2023-03-07T09:31:09.279Z,2.70
2023-03-07T09:33:36.436Z,3.17
2023-03-07T09:36:07.959Z,3.22
2023-03-07T09:38:35.575Z,2.30
2023-03-07T09:41:23.014Z,1.80
2023-03-07T09:43:58.903Z,1.90
2023-03-07T09:47:03.780Z,1.85
2023-03-07T09:51:59.378Z,1.98
2023-03-07T09:54:37.805Z,2.25
2023-03-07T09:57:05.761Z,2.15
2023-03-07T09:59:40.267Z,1.95
2023-03-07T10:02:29.024Z,3.22
2023-03-07T10:04:56.186Z,2.10
2023-03-07T10:07:24.948Z,2.08
2023-03-07T10:09:54.570Z,2.10
2023-03-07T10:12:45.066Z,2.25
2023-03-07T10:15:18.236Z,2.22
2023-03-07T10:17:54.517Z,2.00
2023-03-07T10:20:21.888Z,2.20
2023-03-07T10:23:07.918Z,1.52
2023-03-07T10:25:38.050Z,1.58
2023-03-07T10:28:28.608Z,1.40
2023-03-07T10:30:59.557Z,1.23
2023-03-07T10:33:28.057Z,1.48
2023-03-07T10:35:59.514Z,1.55
2023-03-07T10:38:26.758Z,1.42
2023-03-07T10:41:02.401Z,1.15
2023-03-07T10:43:31.651Z,1.65
2023-03-07T10:46:25.176Z,1.33
2023-03-07T10:48:54.311Z,1.85
2023-03-07T10:51:27.573Z,1.58
2023-03-07T10:53:57.197Z,1.70
2023-03-07T10:56:24.504Z,1.33
2023-03-07T10:59:10.872Z,2.10
2023-03-07T11:01:39.425Z,1.35
2023-03-07T11:04:07.772Z,1.48
2023-03-07T11:06:36.775Z,1.20
2023-03-07T11:09:14.972Z,1.50
2023-03-07T11:11:47.475Z,1.38
2023-03-07T11:14:16.475Z,1.30
2023-03-07T11:16:55.975Z,1.42
2023-03-07T11:19:32.396Z,1.35
2023-03-07T11:22:00.444Z,1.23
2023-03-07T11:24:29.656Z,1.60
2023-03-07T11:27:00.365Z,1.67
2023-03-07T11:29:33.603Z,1.42
2023-03-07T11:32:07.252Z,1.60
2023-03-07T11:34:34.495Z,1.52
2023-03-07T11:37:12.013Z,1.55
2023-03-07T11:39:45.165Z,1.58
2023-03-07T11:42:24.549Z,1.50
2023-03-07T11:45:04.027Z,1.60
2023-03-07T11:47:31.196Z,1.95
2023-03-07T11:50:08.804Z,1.35
2023-03-07T11:52:35.985Z,0.98
2023-03-07T11:55:22.028Z,1.30
2023-03-07T11:57:52.512Z,1.10
2023-03-07T12:02:59.333Z,0.95
2023-03-07T12:05:29.454Z,0.73
2023-03-07T12:08:15.441Z,0.82
2023-03-07T12:10:47.890Z,1.20
2023-03-07T12:13:18.260Z,0.95
2023-03-07T12:15:45.654Z,0.85
2023-03-07T12:18:30.568Z,0.93
2023-03-07T12:21:16.114Z,1.02
2023-03-07T12:23:48.233Z,1.15
2023-03-07T12:26:24.805Z,1.30
2023-03-07T12:28:58.989Z,0.82
2023-03-07T12:31:37.577Z,1.35
2023-03-07T12:34:05.135Z,1.33
2023-03-07T12:36:39.863Z,1.48
2023-03-07T12:39:10.484Z,1.23
2023-03-07T12:44:07.459Z,1.08
2023-03-07T12:46:39.349Z,1.08
2023-03-07T12:49:15.990Z,1.00
2023-03-07T12:51:58.377Z,1.10
2023-03-07T12:54:30.607Z,1.02
2023-03-07T12:57:11.018Z,1.20
2023-03-07T12:59:42.004Z,1.70
2023-03-07T13:02:24.183Z,1.90
2023-03-07T13:04:51.406Z,1.73
2023-03-07T13:07:36.928Z,1.70
2023-03-07T13:10:06.729Z,1.33
2023-03-07T13:12:40.137Z,1.05
2023-03-07T13:15:19.534Z,1.05
2023-03-07T13:17:46.790Z,1.42
2023-03-07T13:20:19.782Z,1.33
2023-03-07T13:22:47.182Z,1.20
2023-03-07T13:25:20.892Z,1.52
2023-03-07T13:27:49.486Z,1.33
2023-03-07T13:30:18.772Z,1.40
2023-03-07T13:32:56.359Z,1.25
2023-03-07T13:35:29.786Z,1.20
2023-03-07T13:38:00.037Z,1.55
2023-03-07T13:40:30.477Z,1.52
2023-03-07T13:42:57.914Z,1.30
2023-03-07T13:45:40.662Z,1.90
2023-03-07T13:48:36.150Z,1.85
2023-03-07T13:53:39.790Z,1.63
2023-03-07T13:56:16.529Z,1.77
2023-03-07T14:01:16.850Z,1.33
2023-03-07T14:04:03.252Z,1.50
2023-03-07T14:06:45.206Z,1.48
2023-03-07T14:09:15.658Z,1.40
2023-03-07T14:12:06.949Z,0.98
2023-03-07T14:14:53.099Z,1.20
2023-03-07T14:17:29.523Z,1.10
2023-03-07T14:19:59.812Z,1.00
2023-03-07T14:22:46.117Z,1.33
2023-03-07T14:25:22.547Z,1.48
2023-03-07T14:27:54.591Z,0.85
2023-03-07T14:30:22.423Z,1.02
2023-03-07T14:32:49.719Z,1.10
2023-03-07T14:35:32.831Z,1.40
2023-03-07T14:38:00.177Z,1.15
2023-03-07T14:40:31.321Z,1.35
2023-03-07T14:43:17.639Z,1.55
2023-03-07T14:45:49.930Z,1.52
2023-03-07T14:48:29.287Z,1.27
2023-03-07T14:50:57.479Z,1.42
2023-03-07T14:53:27.166Z,1.15
2023-03-07T14:55:55.744Z,1.50
2023-03-07T14:58:30.943Z,1.15
2023-03-07T15:01:03.153Z,1.35
2023-03-07T15:03:31.487Z,1.42
2023-03-07T15:06:01.253Z,1.75
2023-03-07T15:13:49.347Z,1.48
2023-03-07T15:16:19.124Z,1.23
2023-03-07T15:18:49.882Z,1.20
2023-03-07T15:21:27.496Z,1.83
2023-03-07T15:24:13.233Z,1.15
2023-03-07T15:26:43.260Z,1.35
2023-03-07T15:29:12.689Z,2.10
2023-03-07T15:31:50.186Z,1.70
2023-03-07T15:34:28.783Z,1.95
2023-03-07T15:36:56.152Z,2.10
2023-03-07T15:39:30.016Z,2.40
2023-03-07T15:42:03.920Z,1.20
2023-03-07T15:44:32.580Z,1.20
2023-03-07T15:47:02.112Z,1.77
2023-03-07T15:49:43.176Z,1.77
2023-03-07T15:52:30.074Z,1.92
2023-03-07T15:54:59.122Z,2.40
2023-03-07T15:57:33.756Z,1.70
2023-03-07T16:00:02.765Z,2.40
2023-03-07T16:02:35.222Z,2.72
2023-03-07T16:12:22.527Z,1.65
2023-03-07T16:14:50.594Z,2.08
2023-03-07T16:17:34.234Z,1.73
2023-03-07T16:20:22.923Z,1.50
2023-03-07T16:23:47.763Z,1.83
2023-03-07T16:26:21.772Z,1.10
2023-03-07T16:28:49.847Z,2.05
2023-03-07T16:31:17.938Z,2.17
2023-03-07T16:33:46.160Z,1.85
2023-03-07T16:36:14.359Z,2.03
2023-03-07T16:38:42.036Z,1.73
2023-03-07T16:41:16.229Z,3.10
2023-03-07T16:44:03.311Z,3.30
2023-03-07T16:49:23.061Z,3.10
2023-03-07T16:52:04.525Z,2.53
2023-03-07T16:54:32.877Z,2.67
2023-03-07T16:57:02.048Z,3.45
2023-03-07T16:59:34.657Z,4.72
2023-03-07T17:02:02.484Z,3.28
2023-03-07T17:04:29.901Z,2.30
2023-03-07T17:07:04.267Z,3.83
2023-03-07T17:09:32.415Z,3.40
2023-03-07T17:11:59.687Z,4.38
2023-03-07T17:14:26.911Z,2.88
2023-03-07T17:16:54.259Z,2.40
2023-03-07T17:19:28.877Z,1.52
2023-03-07T17:21:57.654Z,1.45
2023-03-07T17:24:25.302Z,1.67
2023-03-07T17:26:53.705Z,1.55
2023-03-07T17:29:35.619Z,1.15
2023-03-07T17:32:02.902Z,1.15
2023-03-07T17:34:31.417Z,1.67
2023-03-07T17:37:00.328Z,5.82
2023-03-07T17:39:31.046Z,2.40
2023-03-07T17:44:25.710Z,1.85
2023-03-07T17:46:53.740Z,3.20
2023-03-07T17:49:21.421Z,3.55
2023-03-07T17:51:48.999Z,5.80
2023-03-07T17:54:16.778Z,5.35
2023-03-07T17:56:44.144Z,5.05
2023-03-07T17:59:36.382Z,4.85
2023-03-07T18:02:05.419Z,4.25
2023-03-07T18:04:33.168Z,6.25
2023-03-07T18:07:00.717Z,14.48
2023-03-07T18:09:27.960Z,10.80
2023-03-07T18:12:20.428Z,7.43
2023-03-07T18:14:47.733Z,5.50
2023-03-07T18:17:15.108Z,4.97
2023-03-07T18:20:11.045Z,7.00
2023-03-07T18:22:38.659Z,11.27
2023-03-07T18:25:11.080Z,12.18
2023-03-07T18:27:39.748Z,8.55
2023-03-07T18:30:07.188Z,5.38
2023-03-07T18:32:34.566Z,5.80
2023-03-07T18:35:01.868Z,5.45
2023-03-07T18:37:29.255Z,5.57
2023-03-07T18:39:56.539Z,3.63
2023-03-07T18:42:23.830Z,2.75
2023-03-07T18:44:51.228Z,2.60
2023-03-07T18:47:18.453Z,1.88
2023-03-07T18:49:45.692Z,2.38
2023-03-07T18:52:12.816Z,2.13
2023-03-07T18:54:39.975Z,2.30
2023-03-07T18:57:07.187Z,1.80
2023-03-07T18:59:34.577Z,1.83
2023-03-07T19:02:03.196Z,2.28
2023-03-07T19:04:31.420Z,1.92
2023-03-07T19:07:00.564Z,3.60
2023-03-07T19:09:27.908Z,2.45
2023-03-07T19:11:55.284Z,3.20
2023-03-07T19:14:22.764Z,5.97
2023-03-07T19:16:50.295Z,5.20
2023-03-07T19:19:20.138Z,7.22
2023-03-07T19:21:47.614Z,8.40
2023-03-07T19:24:14.902Z,4.88
2023-03-07T19:26:43.454Z,4.20
2023-03-07T19:29:12.648Z,4.88
2023-03-07T19:31:41.209Z,6.32
2023-03-07T19:34:09.344Z,5.50
2023-03-07T19:36:37.455Z,7.60
2023-03-07T19:39:05.215Z,9.68
2023-03-07T19:41:44.970Z,6.82
2023-03-07T19:44:12.302Z,6.15
2023-03-07T19:46:39.702Z,7.25
2023-03-07T19:49:13.309Z,5.47
2023-03-07T19:51:40.598Z,3.60
2023-03-07T19:54:09.029Z,3.33
2023-03-07T19:56:38.335Z,3.10
2023-03-07T19:59:08.252Z,2.97
2023-03-07T20:01:35.597Z,2.72
2023-03-07T20:04:04.841Z,3.50
2023-03-07T20:06:32.922Z,3.33
2023-03-07T20:09:00.852Z,4.10
2023-03-07T20:11:38.032Z,5.43
2023-03-07T20:14:05.813Z,6.57
2023-03-07T20:16:33.816Z,9.70
2023-03-07T20:19:02.289Z,8.95
2023-03-07T20:21:29.883Z,9.25
2023-03-07T20:24:00.792Z,8.32
2023-03-07T20:26:32.798Z,9.25
2023-03-07T20:29:00.458Z,9.48
2023-03-07T20:31:28.138Z,10.50
2023-03-07T20:33:55.432Z,8.63
2023-03-07T20:36:26.886Z,8.00
2023-03-07T20:38:55.154Z,8.18
2023-03-07T20:41:23.919Z,8.13
2023-03-07T20:43:52.264Z,10.07
2023-03-07T20:46:20.383Z,11.48
2023-03-07T20:48:48.582Z,10.93
2023-03-07T20:51:20.725Z,5.25
2023-03-07T20:53:48.715Z,4.05
2023-03-07T20:56:16.647Z,4.13
2023-03-07T20:58:44.233Z,3.33
2023-03-07T21:01:11.963Z,3.67
2023-03-07T21:03:39.770Z,3.70
2023-03-07T21:06:07.217Z,3.22
2023-03-07T21:08:36.100Z,3.53
2023-03-07T21:11:05.417Z,5.57
2023-03-07T21:13:36.134Z,6.30
2023-03-07T21:16:05.139Z,10.30
2023-03-07T21:18:32.718Z,10.68
2023-03-07T21:21:07.655Z,9.00
2023-03-07T21:23:35.124Z,6.95
2023-03-07T21:26:06.904Z,9.05
2023-03-07T21:28:35.040Z,11.23
2023-03-07T21:31:03.081Z,6.40
2023-03-07T21:33:31.863Z,10.20
2023-03-07T21:35:59.290Z,14.75
2023-03-07T21:38:26.810Z,10.43
2023-03-07T21:40:54.618Z,6.63
2023-03-07T21:43:22.285Z,7.28
2023-03-07T21:45:49.579Z,6.13
2023-03-07T21:48:19.552Z,5.95
2023-03-07T21:50:51.720Z,7.55
2023-03-07T21:53:19.978Z,5.75
2023-03-07T21:55:51.300Z,7.45
2023-03-07T21:58:18.761Z,6.50
2023-03-07T22:00:46.256Z,6.07
2023-03-07T22:03:14.837Z,5.10
2023-03-07T22:05:42.401Z,4.38
2023-03-07T22:08:10.145Z,5.47
2023-03-07T22:10:37.468Z,4.35
2023-03-07T22:13:06.805Z,3.30
2023-03-07T22:15:34.342Z,4.18
2023-03-07T22:18:01.708Z,4.20
2023-03-07T22:20:28.994Z,5.05
2023-03-07T22:22:56.126Z,3.85
2023-03-07T22:25:23.400Z,3.72
2023-03-07T22:27:50.598Z,3.97
2023-03-07T22:30:18.242Z,3.70
2023-03-07T22:32:45.819Z,3.50
2023-03-07T22:35:13.049Z,2.95
2023-03-07T22:37:41.719Z,3.70
2023-03-07T22:40:11.416Z,3.00
2023-03-07T22:42:38.603Z,3.60
2023-03-07T22:45:06.062Z,3.35
2023-03-07T22:47:33.193Z,1.55
2023-03-07T22:50:00.617Z,2.83
2023-03-07T22:52:27.725Z,2.50
2023-03-07T22:54:55.225Z,2.65
2023-03-07T22:57:22.594Z,2.42
2023-03-07T22:59:50.140Z,2.67
2023-03-07T23:02:17.750Z,2.50
2023-03-07T23:04:45.202Z,3.00
2023-03-07T23:07:13.666Z,2.47
2023-03-07T23:09:41.181Z,2.50
2023-03-07T23:12:08.480Z,2.90
2023-03-07T23:14:37.142Z,2.33
2023-03-07T23:17:05.163Z,2.90
2023-03-07T23:19:32.382Z,2.75
2023-03-07T23:21:59.771Z,2.80
2023-03-07T23:24:26.893Z,2.97
2023-03-07T23:26:54.032Z,2.35
2023-03-07T23:29:21.385Z,2.40
2023-03-07T23:31:52.465Z,2.80
2023-03-07T23:34:20.561Z,2.80
2023-03-07T23:36:48.021Z,2.78
2023-03-07T23:39:16.604Z,2.63
2023-03-07T23:41:43.921Z,2.92
2023-03-07T23:44:11.635Z,2.13
2023-03-07T23:46:38.878Z,2.25
2023-03-07T23:49:06.148Z,2.80
2023-03-07T23:51:33.867Z,2.80
2023-03-07T23:54:01.027Z,2.40
2023-03-07T23:56:28.214Z,1.98
2023-03-07T23:58:55.514Z,2.50
